Las horas y fechas están en horario UTC
Sumar 1 hora en el horario de invierno y 2 en el de verano

Informes METAR cercanos

 

LEZL - Sevilla (civ/Mil, Spain
Distance from station: NNE 24km
Actualización: 26/09/2017 00:00
Despejado
Despejado
 Viento del SO
Viento: SO 6 km/h
Temperatura: 23°C
Rocío: 14°C
Humedad: 57%
Barómetro: 1019 hPa
Resumen: Despejado
Visibility: greater than 10 km
2017/09/25 22:00 LEZL 252200Z 23003KT CAVOK 23/14 Q1019 NOSIG
LEMO - Moron (sp-Usafb), Spain
Distance from station: E 38km
Actualización: 26/09/2017 00:00
Despejado
Despejado
 Viento del SO
Viento: SO 13 km/h
Temperatura: 22°C
Rocío: 14°C
Humedad: 61%
Barómetro: 1019 hPa
Resumen: Despejado
Visibility: greater than 10 km
2017/09/25 22:00 LEMO 252200Z 22007KT 170V250 CAVOK 22/14 Q1019 NOSIG
LEJR - Jerez (civ/Mil), Spain
Distance from station: S 53km
Actualización: 26/09/2017 00:00
Despejado
Despejado
 Viento del SE
Viento: SE 4 km/h
Temperatura: 20°C
Rocío: 16°C
Humedad: 78%
Barómetro: 1020 hPa
Clouds: Despejado
Visibility: 10 km
2017/09/25 22:00 LEJR 252200Z AUTO 13002KT 9999 NCD 20/16 Q1020
 
LERT - Rota Naval Stati, Spain
Distance from station: SSO 71km
Actualización: 26/09/2017 00:00
Despejado
Despejado
 Viento del ONO
Viento: ONO 13 km/h
Temperatura: 22°C
Rocío: 17°C
Humedad: 73%
Barómetro: 1019 hPa
Resumen: Despejado
Visibility: greater than 10 km
2017/09/25 22:00 LERT 252200Z 29007KT CAVOK 22/17 Q1019 NOSIG
LEBA - Cordoba Airport, Spain
Distance from station: ENE 128km
Actualización: 26/09/2017 00:00
Despejado
Despejado
 Viento del calm
Viento: Calma
Temperatura: 21°C
Rocío: 5°C
Humedad: 35%
Barómetro: 1019 hPa
Clouds: Despejado
Visibility: 10 km
2017/09/25 22:00 LEBA 252200Z AUTO 00000KT 9999 NCD 21/05 Q1019
LXGB - Gibraltar (civ/M, Gibraltar
Distance from station: SSE 137km
Actualización: 25/09/2017 23:50
Despejado
Despejado
 Viento del OSO
Viento: OSO 26 km/h
Temperatura: 25°C
Rocío: 12°C
Humedad: 44%
Barómetro: 1019 hPa
Clouds: Despejado
Visibility: 10 km
2017/09/25 21:50 LXGB 252150Z AUTO 24014KT 9999 // NCD 25/12 Q1019
 
LEMG - Malaga (civ/Mil), Spain
Distance from station: ESE 150km
Actualización: 26/09/2017 00:00
Despejado
Despejado
 Viento del ONO
Viento: ONO 11 km/h
Temperatura: 21°C
Rocío: 16°C
Humedad: 73%
Barómetro: 1018 hPa
Resumen: Despejado
Visibility: greater than 10 km
2017/09/25 22:00 LEMG 252200Z 30006KT CAVOK 21/16 Q1018 NOSIG
GMTT - Tangier/Boukhalf, Morocco
Distance from station: S 169km
Actualización: 26/09/2017 00:00
Few Clouds
Few Clouds
 Viento del ENE
Viento: ENE 2 km/h
Temperatura: 19°C
Rocío: 14°C
Humedad: 73%
Barómetro: 1020 hPa
Clouds: Few Clouds
Visibility: 8 km
Cloud details: Few Clouds 488 m
2017/09/25 22:00 GMTT 252200Z 06001KT 8000 FEW016 19/14 Q1020 NOSIG
LPFR - Faro, Portugal
Distance from station: O 172km
Actualización: 26/09/2017 00:00
Despejado
Despejado
 Viento del NNO
Viento: NNO 15 km/h
Temperatura: 24°C
Rocío: 10°C
Humedad: 41%
Barómetro: 1020 hPa
Resumen: Despejado
Visibility: greater than 10 km
2017/09/25 22:00 LPFR 252200Z 34008KT CAVOK 24/10 Q1020
 
LPBJ - Beja (por/Ger-Af, Portugal
Distance from station: ONO 192km
Actualización: 26/09/2017 00:00
Despejado
Despejado
 Viento del ONO
Viento: ONO 15 km/h
Temperatura: 17°C
Rocío: 7°C
Humedad: 52%
Barómetro: 1022 hPa
Resumen: Despejado
Visibility: greater than 10 km
2017/09/25 22:00 LPBJ 252200Z 29008KT CAVOK 17/07 Q1022
LEBZ - Talavera Ab/Bada, Spain
Distance from station: NNO 194km
Actualización: 25/09/2017 21:00
NOT Current
Despejado
Despejado
 Viento del O
Viento: O 17 km/h
Temperatura: 24°C
Rocío: 7°C
Humedad: 34%
Barómetro: 1019 hPa
Resumen: Despejado
Visibility: greater than 10 km
2017/09/25 19:00 LEBZ 251900Z 27009KT CAVOK 24/07 Q1019
LEMD - Madrid/Barajas, Spain
Distance from station: NE 415km
Actualización: 26/09/2017 00:00
Despejado
Despejado
 Viento del NE
Viento: NE 13 km/h
Temperatura: 20°C
Rocío: 6°C
Humedad: 40%
Barómetro: 1021 hPa
Resumen: Despejado
Visibility: greater than 10 km
2017/09/25 22:00 LEMD 252200Z 04007KT 010V080 CAVOK 20/06 Q1021 NOSIG